sensor_id;sensor_type;location;lat;lon;timestamp;P1;durP1;ratioP1;P2;durP2;ratioP2
13568;SDS011;6856;51.460;7.158;2022-08-20T00:00:40;9.68;;;7.93;;
13568;SDS011;6856;51.460;7.158;2022-08-20T00:03:19;7.93;;;6.43;;
13568;SDS011;6856;51.460;7.158;2022-08-20T00:05:58;8.05;;;7.25;;
13568;SDS011;6856;51.460;7.158;2022-08-20T00:08:37;6.68;;;5.97;;
13568;SDS011;6856;51.460;7.158;2022-08-20T00:11:11;7.00;;;6.22;;
13568;SDS011;6856;51.460;7.158;2022-08-20T00:13:51;7.50;;;6.75;;
13568;SDS011;6856;51.460;7.158;2022-08-20T00:16:29;7.00;;;6.10;;
13568;SDS011;6856;51.460;7.158;2022-08-20T00:19:07;9.10;;;6.85;;
13568;SDS011;6856;51.460;7.158;2022-08-20T00:21:41;8.60;;;6.82;;
13568;SDS011;6856;51.460;7.158;2022-08-20T00:24:17;8.27;;;6.20;;
13568;SDS011;6856;51.460;7.158;2022-08-20T00:26:50;7.97;;;6.70;;
13568;SDS011;6856;51.460;7.158;2022-08-20T00:29:25;8.75;;;7.28;;
13568;SDS011;6856;51.460;7.158;2022-08-20T00:31:59;7.05;;;6.10;;
13568;SDS011;6856;51.460;7.158;2022-08-20T00:34:32;7.57;;;6.65;;
13568;SDS011;6856;51.460;7.158;2022-08-20T00:37:06;6.90;;;6.18;;
13568;SDS011;6856;51.460;7.158;2022-08-20T00:39:40;7.30;;;6.60;;
13568;SDS011;6856;51.460;7.158;2022-08-20T00:42:14;7.95;;;7.15;;
13568;SDS011;6856;51.460;7.158;2022-08-20T00:44:49;6.88;;;6.13;;
13568;SDS011;6856;51.460;7.158;2022-08-20T00:47:23;7.60;;;6.90;;
13568;SDS011;6856;51.460;7.158;2022-08-20T00:49:58;8.20;;;6.97;;
13568;SDS011;6856;51.460;7.158;2022-08-20T00:52:31;7.07;;;6.38;;
13568;SDS011;6856;51.460;7.158;2022-08-20T00:55:05;7.43;;;6.68;;
13568;SDS011;6856;51.460;7.158;2022-08-20T00:57:43;7.25;;;6.45;;
13568;SDS011;6856;51.460;7.158;2022-08-20T01:00:36;6.65;;;5.85;;
13568;SDS011;6856;51.460;7.158;2022-08-20T01:03:16;7.68;;;6.85;;
13568;SDS011;6856;51.460;7.158;2022-08-20T01:05:51;6.55;;;5.82;;
13568;SDS011;6856;51.460;7.158;2022-08-20T01:08:25;6.68;;;5.75;;
13568;SDS011;6856;51.460;7.158;2022-08-20T01:10:59;7.22;;;6.47;;
13568;SDS011;6856;51.460;7.158;2022-08-20T01:13:41;8.82;;;7.30;;
13568;SDS011;6856;51.460;7.158;2022-08-20T01:16:19;7.23;;;5.93;;
13568;SDS011;6856;51.460;7.158;2022-08-20T01:18:58;7.78;;;6.60;;
13568;SDS011;6856;51.460;7.158;2022-08-20T01:21:55;6.75;;;6.05;;
13568;SDS011;6856;51.460;7.158;2022-08-20T01:24:33;8.32;;;6.53;;
13568;SDS011;6856;51.460;7.158;2022-08-20T01:27:12;6.85;;;6.15;;
13568;SDS011;6856;51.460;7.158;2022-08-20T01:29:47;8.27;;;6.30;;
13568;SDS011;6856;51.460;7.158;2022-08-20T01:32:22;7.47;;;6.18;;
13568;SDS011;6856;51.460;7.158;2022-08-20T01:34:56;7.57;;;6.88;;
13568;SDS011;6856;51.460;7.158;2022-08-20T01:37:30;7.07;;;6.28;;
13568;SDS011;6856;51.460;7.158;2022-08-20T01:40:04;6.70;;;5.90;;
13568;SDS011;6856;51.460;7.158;2022-08-20T01:42:47;6.45;;;5.75;;
13568;SDS011;6856;51.460;7.158;2022-08-20T01:45:31;6.97;;;6.28;;
13568;SDS011;6856;51.460;7.158;2022-08-20T01:48:10;6.80;;;5.88;;
13568;SDS011;6856;51.460;7.158;2022-08-20T01:50:48;7.43;;;6.38;;
13568;SDS011;6856;51.460;7.158;2022-08-20T01:53:35;6.30;;;5.53;;
13568;SDS011;6856;51.460;7.158;2022-08-20T01:56:12;6.70;;;5.15;;
13568;SDS011;6856;51.460;7.158;2022-08-20T01:58:51;6.95;;;5.78;;
13568;SDS011;6856;51.460;7.158;2022-08-20T02:01:30;7.40;;;6.57;;
13568;SDS011;6856;51.460;7.158;2022-08-20T02:04:17;7.22;;;6.53;;
13568;SDS011;6856;51.460;7.158;2022-08-20T02:06:54;6.60;;;5.90;;
13568;SDS011;6856;51.460;7.158;2022-08-20T02:09:34;7.25;;;5.63;;
13568;SDS011;6856;51.460;7.158;2022-08-20T02:12:10;6.70;;;6.00;;
13568;SDS011;6856;51.460;7.158;2022-08-20T02:14:47;6.80;;;6.10;;
13568;SDS011;6856;51.460;7.158;2022-08-20T02:17:27;7.57;;;6.53;;
13568;SDS011;6856;51.460;7.158;2022-08-20T02:20:03;7.18;;;6.47;;
13568;SDS011;6856;51.460;7.158;2022-08-20T02:22:43;8.88;;;6.88;;
13568;SDS011;6856;51.460;7.158;2022-08-20T02:25:21;7.90;;;7.10;;
13568;SDS011;6856;51.460;7.158;2022-08-20T02:28:00;8.02;;;7.13;;
13568;SDS011;6856;51.460;7.158;2022-08-20T02:30:48;7.55;;;6.75;;
13568;SDS011;6856;51.460;7.158;2022-08-20T02:33:25;7.50;;;6.65;;
13568;SDS011;6856;51.460;7.158;2022-08-20T02:35:59;7.15;;;6.35;;
13568;SDS011;6856;51.460;7.158;2022-08-20T02:38:33;8.05;;;7.20;;
13568;SDS011;6856;51.460;7.158;2022-08-20T02:41:09;8.02;;;7.22;;
13568;SDS011;6856;51.460;7.158;2022-08-20T02:43:43;7.90;;;6.35;;
13568;SDS011;6856;51.460;7.158;2022-08-20T02:46:18;6.53;;;5.73;;
13568;SDS011;6856;51.460;7.158;2022-08-20T02:48:52;7.33;;;6.30;;
13568;SDS011;6856;51.460;7.158;2022-08-20T02:51:26;6.68;;;5.97;;
13568;SDS011;6856;51.460;7.158;2022-08-20T02:54:01;7.57;;;6.33;;
13568;SDS011;6856;51.460;7.158;2022-08-20T02:56:34;6.33;;;5.63;;
13568;SDS011;6856;51.460;7.158;2022-08-20T02:59:08;7.10;;;6.38;;
13568;SDS011;6856;51.460;7.158;2022-08-20T03:01:50;6.07;;;5.28;;
13568;SDS011;6856;51.460;7.158;2022-08-20T03:04:31;6.15;;;5.43;;
13568;SDS011;6856;51.460;7.158;2022-08-20T03:07:05;6.43;;;5.32;;
13568;SDS011;6856;51.460;7.158;2022-08-20T03:09:40;6.35;;;5.35;;
13568;SDS011;6856;51.460;7.158;2022-08-20T03:12:13;6.53;;;5.57;;
13568;SDS011;6856;51.460;7.158;2022-08-20T03:14:47;6.45;;;5.38;;
13568;SDS011;6856;51.460;7.158;2022-08-20T03:17:22;8.48;;;7.50;;
13568;SDS011;6856;51.460;7.158;2022-08-20T03:19:56;8.10;;;6.10;;
13568;SDS011;6856;51.460;7.158;2022-08-20T03:22:29;6.22;;;5.15;;
13568;SDS011;6856;51.460;7.158;2022-08-20T03:25:03;6.07;;;5.47;;
13568;SDS011;6856;51.460;7.158;2022-08-20T03:27:38;5.63;;;4.65;;
13568;SDS011;6856;51.460;7.158;2022-08-20T03:30:13;7.10;;;5.72;;
13568;SDS011;6856;51.460;7.158;2022-08-20T03:32:50;6.07;;;5.38;;
13568;SDS011;6856;51.460;7.158;2022-08-20T03:35:26;6.65;;;5.68;;
13568;SDS011;6856;51.460;7.158;2022-08-20T03:38:04;6.55;;;5.78;;
13568;SDS011;6856;51.460;7.158;2022-08-20T03:40:40;6.35;;;5.63;;
13568;SDS011;6856;51.460;7.158;2022-08-20T03:43:14;6.78;;;6.05;;
13568;SDS011;6856;51.460;7.158;2022-08-20T03:45:48;7.53;;;6.72;;
13568;SDS011;6856;51.460;7.158;2022-08-20T03:48:25;6.43;;;5.35;;
13568;SDS011;6856;51.460;7.158;2022-08-20T03:51:00;7.60;;;6.07;;
13568;SDS011;6856;51.460;7.158;2022-08-20T03:57:13;6.83;;;5.93;;
13568;SDS011;6856;51.460;7.158;2022-08-20T03:59:48;6.78;;;5.10;;
13568;SDS011;6856;51.460;7.158;2022-08-20T04:02:29;6.53;;;5.83;;
13568;SDS011;6856;51.460;7.158;2022-08-20T04:05:13;7.95;;;6.25;;
13568;SDS011;6856;51.460;7.158;2022-08-20T04:07:48;7.00;;;6.22;;
13568;SDS011;6856;51.460;7.158;2022-08-20T04:10:41;6.30;;;5.38;;
13568;SDS011;6856;51.460;7.158;2022-08-20T04:13:35;7.07;;;5.82;;
13568;SDS011;6856;51.460;7.158;2022-08-20T04:16:13;5.67;;;4.93;;
13568;SDS011;6856;51.460;7.158;2022-08-20T04:18:49;7.77;;;5.80;;
13568;SDS011;6856;51.460;7.158;2022-08-20T04:21:34;6.87;;;5.83;;
13568;SDS011;6856;51.460;7.158;2022-08-20T04:24:08;7.47;;;5.67;;
13568;SDS011;6856;51.460;7.158;2022-08-20T04:27:02;6.13;;;4.97;;
13568;SDS011;6856;51.460;7.158;2022-08-20T04:29:38;7.67;;;6.13;;
13568;SDS011;6856;51.460;7.158;2022-08-20T04:32:18;6.65;;;5.63;;
13568;SDS011;6856;51.460;7.158;2022-08-20T04:34:52;6.27;;;5.03;;
13568;SDS011;6856;51.460;7.158;2022-08-20T04:37:29;7.27;;;5.93;;
13568;SDS011;6856;51.460;7.158;2022-08-20T04:40:04;7.43;;;6.40;;
13568;SDS011;6856;51.460;7.158;2022-08-20T04:42:59;6.93;;;5.32;;
13568;SDS011;6856;51.460;7.158;2022-08-20T04:45:35;7.25;;;6.03;;
13568;SDS011;6856;51.460;7.158;2022-08-20T04:48:09;6.67;;;5.40;;
13568;SDS011;6856;51.460;7.158;2022-08-20T04:50:45;6.22;;;5.53;;
13568;SDS011;6856;51.460;7.158;2022-08-20T04:53:22;7.57;;;6.00;;
13568;SDS011;6856;51.460;7.158;2022-08-20T04:55:59;5.85;;;4.95;;
13568;SDS011;6856;51.460;7.158;2022-08-20T04:58:35;7.43;;;5.73;;
13568;SDS011;6856;51.460;7.158;2022-08-20T05:01:11;6.70;;;5.43;;
13568;SDS011;6856;51.460;7.158;2022-08-20T05:03:45;6.60;;;5.75;;
13568;SDS011;6856;51.460;7.158;2022-08-20T05:06:19;8.07;;;6.40;;
13568;SDS011;6856;51.460;7.158;2022-08-20T05:08:58;8.83;;;6.97;;
13568;SDS011;6856;51.460;7.158;2022-08-20T05:11:32;8.53;;;6.47;;
13568;SDS011;6856;51.460;7.158;2022-08-20T05:14:07;8.23;;;6.83;;
13568;SDS011;6856;51.460;7.158;2022-08-20T05:16:44;7.70;;;6.57;;
13568;SDS011;6856;51.460;7.158;2022-08-20T05:19:21;8.95;;;7.15;;
13568;SDS011;6856;51.460;7.158;2022-08-20T05:21:55;8.93;;;7.40;;
13568;SDS011;6856;51.460;7.158;2022-08-20T05:24:43;8.10;;;6.33;;
13568;SDS011;6856;51.460;7.158;2022-08-20T05:27:17;8.27;;;6.22;;
13568;SDS011;6856;51.460;7.158;2022-08-20T05:29:59;9.07;;;6.82;;
13568;SDS011;6856;51.460;7.158;2022-08-20T05:32:51;8.27;;;6.87;;
13568;SDS011;6856;51.460;7.158;2022-08-20T05:35:25;9.07;;;6.93;;
13568;SDS011;6856;51.460;7.158;2022-08-20T05:37:59;7.30;;;6.35;;
13568;SDS011;6856;51.460;7.158;2022-08-20T05:40:35;9.53;;;7.37;;
13568;SDS011;6856;51.460;7.158;2022-08-20T05:43:10;8.25;;;7.20;;
13568;SDS011;6856;51.460;7.158;2022-08-20T05:45:48;8.00;;;7.10;;
13568;SDS011;6856;51.460;7.158;2022-08-20T05:48:27;8.73;;;6.93;;
13568;SDS011;6856;51.460;7.158;2022-08-20T05:51:01;8.05;;;7.10;;
13568;SDS011;6856;51.460;7.158;2022-08-20T05:53:35;10.20;;;6.82;;
13568;SDS011;6856;51.460;7.158;2022-08-20T05:56:10;8.43;;;7.20;;
13568;SDS011;6856;51.460;7.158;2022-08-20T05:58:44;8.48;;;6.80;;
13568;SDS011;6856;51.460;7.158;2022-08-20T06:01:21;7.70;;;6.90;;
13568;SDS011;6856;51.460;7.158;2022-08-20T06:03:55;8.35;;;7.40;;
13568;SDS011;6856;51.460;7.158;2022-08-20T06:06:46;7.23;;;6.37;;
13568;SDS011;6856;51.460;7.158;2022-08-20T06:09:22;8.07;;;6.20;;
13568;SDS011;6856;51.460;7.158;2022-08-20T06:12:04;7.32;;;6.25;;
13568;SDS011;6856;51.460;7.158;2022-08-20T06:14:40;6.75;;;5.95;;
13568;SDS011;6856;51.460;7.158;2022-08-20T06:17:14;5.85;;;4.85;;
13568;SDS011;6856;51.460;7.158;2022-08-20T06:19:52;6.88;;;5.88;;
13568;SDS011;6856;51.460;7.158;2022-08-20T06:22:27;6.40;;;5.80;;
13568;SDS011;6856;51.460;7.158;2022-08-20T06:25:00;6.03;;;5.38;;
13568;SDS011;6856;51.460;7.158;2022-08-20T06:27:37;6.47;;;5.77;;
13568;SDS011;6856;51.460;7.158;2022-08-20T06:30:14;6.65;;;5.55;;
13568;SDS011;6856;51.460;7.158;2022-08-20T06:32:49;6.37;;;5.23;;
13568;SDS011;6856;51.460;7.158;2022-08-20T06:35:23;5.90;;;5.30;;
13568;SDS011;6856;51.460;7.158;2022-08-20T06:37:57;6.63;;;5.93;;
13568;SDS011;6856;51.460;7.158;2022-08-20T06:40:32;6.93;;;5.90;;
13568;SDS011;6856;51.460;7.158;2022-08-20T06:43:08;6.88;;;5.93;;
13568;SDS011;6856;51.460;7.158;2022-08-20T06:45:42;7.35;;;6.53;;
13568;SDS011;6856;51.460;7.158;2022-08-20T06:48:16;7.60;;;6.73;;
13568;SDS011;6856;51.460;7.158;2022-08-20T06:50:50;6.10;;;5.35;;
13568;SDS011;6856;51.460;7.158;2022-08-20T06:53:23;6.83;;;6.07;;
13568;SDS011;6856;51.460;7.158;2022-08-20T06:55:58;7.10;;;6.18;;
13568;SDS011;6856;51.460;7.158;2022-08-20T06:58:33;6.70;;;6.00;;
13568;SDS011;6856;51.460;7.158;2022-08-20T07:01:10;7.63;;;6.32;;
13568;SDS011;6856;51.460;7.158;2022-08-20T07:32:32;5.03;;;4.18;;
13568;SDS011;6856;51.460;7.158;2022-08-20T07:35:11;4.88;;;4.15;;
13568;SDS011;6856;51.460;7.158;2022-08-20T07:37:49;4.70;;;4.30;;
13568;SDS011;6856;51.460;7.158;2022-08-20T07:40:27;5.20;;;4.43;;
13568;SDS011;6856;51.460;7.158;2022-08-20T07:43:03;4.75;;;4.25;;
13568;SDS011;6856;51.460;7.158;2022-08-20T07:45:39;4.68;;;4.10;;
13568;SDS011;6856;51.460;7.158;2022-08-20T07:48:21;6.32;;;5.07;;
13568;SDS011;6856;51.460;7.158;2022-08-20T07:51:03;5.30;;;4.43;;
13568;SDS011;6856;51.460;7.158;2022-08-20T07:53:39;5.15;;;4.65;;
13568;SDS011;6856;51.460;7.158;2022-08-20T07:56:13;5.93;;;4.75;;
13568;SDS011;6856;51.460;7.158;2022-08-20T07:58:52;6.25;;;5.43;;
13568;SDS011;6856;51.460;7.158;2022-08-20T08:01:30;5.88;;;5.22;;
13568;SDS011;6856;51.460;7.158;2022-08-20T08:04:07;5.65;;;5.07;;
13568;SDS011;6856;51.460;7.158;2022-08-20T08:06:41;5.22;;;4.72;;
13568;SDS011;6856;51.460;7.158;2022-08-20T08:09:17;5.40;;;4.90;;
13568;SDS011;6856;51.460;7.158;2022-08-20T08:11:50;5.47;;;4.68;;
13568;SDS011;6856;51.460;7.158;2022-08-20T08:14:28;6.03;;;4.78;;
13568;SDS011;6856;51.460;7.158;2022-08-20T08:17:07;6.50;;;5.30;;
13568;SDS011;6856;51.460;7.158;2022-08-20T08:19:46;8.13;;;7.32;;
13568;SDS011;6856;51.460;7.158;2022-08-20T08:22:22;9.27;;;8.38;;
13568;SDS011;6856;51.460;7.158;2022-08-20T08:24:57;10.07;;;9.07;;
13568;SDS011;6856;51.460;7.158;2022-08-20T08:27:33;10.60;;;9.50;;
13568;SDS011;6856;51.460;7.158;2022-08-20T08:30:07;10.25;;;9.25;;
13568;SDS011;6856;51.460;7.158;2022-08-20T08:32:45;10.98;;;9.95;;
13568;SDS011;6856;51.460;7.158;2022-08-20T08:35:38;14.38;;;12.23;;
13568;SDS011;6856;51.460;7.158;2022-08-20T08:38:16;13.30;;;10.90;;
13568;SDS011;6856;51.460;7.158;2022-08-20T08:40:53;13.25;;;11.85;;
13568;SDS011;6856;51.460;7.158;2022-08-20T08:43:31;13.93;;;12.52;;
13568;SDS011;6856;51.460;7.158;2022-08-20T08:46:05;12.98;;;11.73;;
13568;SDS011;6856;51.460;7.158;2022-08-20T08:48:44;11.93;;;10.82;;
13568;SDS011;6856;51.460;7.158;2022-08-20T08:51:23;12.15;;;11.02;;
13568;SDS011;6856;51.460;7.158;2022-08-20T08:54:04;15.10;;;13.60;;
13568;SDS011;6856;51.460;7.158;2022-08-20T08:56:40;13.38;;;12.05;;
13568;SDS011;6856;51.460;7.158;2022-08-20T08:59:20;12.45;;;11.20;;
13568;SDS011;6856;51.460;7.158;2022-08-20T09:01:56;15.43;;;13.93;;
13568;SDS011;6856;51.460;7.158;2022-08-20T09:04:33;14.00;;;12.60;;
13568;SDS011;6856;51.460;7.158;2022-08-20T09:07:13;14.80;;;13.38;;
13568;SDS011;6856;51.460;7.158;2022-08-20T09:29:46;14.05;;;12.57;;
13568;SDS011;6856;51.460;7.158;2022-08-20T09:32:21;12.85;;;11.57;;
13568;SDS011;6856;51.460;7.158;2022-08-20T09:35:00;16.27;;;14.57;;
13568;SDS011;6856;51.460;7.158;2022-08-20T09:37:39;14.85;;;13.25;;
13568;SDS011;6856;51.460;7.158;2022-08-20T09:40:15;15.95;;;14.27;;
13568;SDS011;6856;51.460;7.158;2022-08-20T09:42:56;18.23;;;16.38;;
13568;SDS011;6856;51.460;7.158;2022-08-20T09:45:37;18.17;;;16.35;;
13568;SDS011;6856;51.460;7.158;2022-08-20T09:48:16;18.10;;;16.35;;
13568;SDS011;6856;51.460;7.158;2022-08-20T09:50:52;17.35;;;15.57;;
13568;SDS011;6856;51.460;7.158;2022-08-20T09:53:41;18.05;;;15.43;;
13568;SDS011;6856;51.460;7.158;2022-08-20T09:56:37;15.68;;;14.20;;
13568;SDS011;6856;51.460;7.158;2022-08-20T10:00:08;14.75;;;13.35;;
13568;SDS011;6856;51.460;7.158;2022-08-20T10:03:13;13.98;;;12.57;;
13568;SDS011;6856;51.460;7.158;2022-08-20T10:05:48;13.80;;;12.35;;
13568;SDS011;6856;51.460;7.158;2022-08-20T10:08:23;14.65;;;13.15;;
13568;SDS011;6856;51.460;7.158;2022-08-20T10:10:59;14.05;;;12.60;;
13568;SDS011;6856;51.460;7.158;2022-08-20T10:13:33;14.80;;;13.30;;
13568;SDS011;6856;51.460;7.158;2022-08-20T10:16:07;14.45;;;12.80;;
13568;SDS011;6856;51.460;7.158;2022-08-20T10:18:44;15.18;;;13.57;;
13568;SDS011;6856;51.460;7.158;2022-08-20T10:21:20;14.35;;;12.88;;
13568;SDS011;6856;51.460;7.158;2022-08-20T10:23:57;14.77;;;13.38;;
13568;SDS011;6856;51.460;7.158;2022-08-20T10:26:32;15.02;;;13.73;;
13568;SDS011;6856;51.460;7.158;2022-08-20T10:29:06;15.93;;;14.38;;
13568;SDS011;6856;51.460;7.158;2022-08-20T10:31:40;14.32;;;12.40;;
13568;SDS011;6856;51.460;7.158;2022-08-20T10:34:15;13.93;;;12.63;;
13568;SDS011;6856;51.460;7.158;2022-08-20T10:36:49;14.25;;;12.85;;
13568;SDS011;6856;51.460;7.158;2022-08-20T10:39:23;12.25;;;11.05;;
13568;SDS011;6856;51.460;7.158;2022-08-20T10:42:01;12.52;;;11.23;;
13568;SDS011;6856;51.460;7.158;2022-08-20T10:44:40;14.45;;;12.77;;
13568;SDS011;6856;51.460;7.158;2022-08-20T10:47:17;14.43;;;13.02;;
13568;SDS011;6856;51.460;7.158;2022-08-20T10:49:59;13.48;;;12.07;;
13568;SDS011;6856;51.460;7.158;2022-08-20T10:52:38;11.93;;;10.40;;
13568;SDS011;6856;51.460;7.158;2022-08-20T10:55:15;12.32;;;11.02;;
13568;SDS011;6856;51.460;7.158;2022-08-20T10:57:49;12.40;;;11.18;;
13568;SDS011;6856;51.460;7.158;2022-08-20T11:00:25;10.45;;;9.45;;
13568;SDS011;6856;51.460;7.158;2022-08-20T11:03:01;10.63;;;9.57;;
13568;SDS011;6856;51.460;7.158;2022-08-20T11:05:36;10.27;;;9.35;;
13568;SDS011;6856;51.460;7.158;2022-08-20T11:08:10;9.50;;;8.57;;
13568;SDS011;6856;51.460;7.158;2022-08-20T11:11:06;10.30;;;9.15;;
13568;SDS011;6856;51.460;7.158;2022-08-20T11:13:40;11.18;;;9.68;;
13568;SDS011;6856;51.460;7.158;2022-08-20T11:16:20;10.45;;;9.25;;
13568;SDS011;6856;51.460;7.158;2022-08-20T11:18:54;9.30;;;7.88;;
13568;SDS011;6856;51.460;7.158;2022-08-20T11:21:29;9.45;;;8.45;;
13568;SDS011;6856;51.460;7.158;2022-08-20T11:24:04;11.35;;;9.80;;
13568;SDS011;6856;51.460;7.158;2022-08-20T11:26:38;10.27;;;8.38;;
13568;SDS011;6856;51.460;7.158;2022-08-20T11:29:12;9.20;;;8.38;;
13568;SDS011;6856;51.460;7.158;2022-08-20T11:31:46;10.25;;;7.75;;
13568;SDS011;6856;51.460;7.158;2022-08-20T11:34:23;10.00;;;9.00;;
13568;SDS011;6856;51.460;7.158;2022-08-20T11:37:01;10.45;;;8.48;;
13568;SDS011;6856;51.460;7.158;2022-08-20T11:39:44;9.05;;;7.90;;
13568;SDS011;6856;51.460;7.158;2022-08-20T11:42:20;10.40;;;9.10;;
13568;SDS011;6856;51.460;7.158;2022-08-20T11:44:54;11.18;;;8.88;;
13568;SDS011;6856;51.460;7.158;2022-08-20T11:47:28;10.45;;;9.30;;
13568;SDS011;6856;51.460;7.158;2022-08-20T11:50:05;11.10;;;10.00;;
13568;SDS011;6856;51.460;7.158;2022-08-20T11:52:43;10.02;;;9.02;;
